sensor_id;sensor_type;location;lat;lon;timestamp;P1;durP1;ratioP1;P2;durP2;ratioP2
49458;SDS011;35354;51.296;16.924;2023-02-07T00:00:11;136.48;;;58.90;;
49458;SDS011;35354;51.296;16.924;2023-02-07T00:02:42;124.68;;;56.33;;
49458;SDS011;35354;51.296;16.924;2023-02-07T00:05:09;122.38;;;55.30;;
49458;SDS011;35354;51.296;16.924;2023-02-07T00:07:35;115.78;;;55.13;;
49458;SDS011;35354;51.296;16.924;2023-02-07T00:10:00;120.30;;;58.22;;
49458;SDS011;35354;51.296;16.924;2023-02-07T00:12:26;129.13;;;59.95;;
49458;SDS011;35354;51.296;16.924;2023-02-07T00:14:51;127.22;;;59.10;;
49458;SDS011;35354;51.296;16.924;2023-02-07T00:17:16;115.53;;;55.85;;
49458;SDS011;35354;51.296;16.924;2023-02-07T00:19:42;106.95;;;54.05;;
49458;SDS011;35354;51.296;16.924;2023-02-07T00:22:07;106.10;;;51.78;;
49458;SDS011;35354;51.296;16.924;2023-02-07T00:24:32;84.80;;;43.38;;
49458;SDS011;35354;51.296;16.924;2023-02-07T00:26:58;89.88;;;43.88;;
49458;SDS011;35354;51.296;16.924;2023-02-07T00:29:23;80.22;;;40.35;;
49458;SDS011;35354;51.296;16.924;2023-02-07T00:31:49;67.32;;;36.15;;
49458;SDS011;35354;51.296;16.924;2023-02-07T00:34:14;59.90;;;34.17;;
49458;SDS011;35354;51.296;16.924;2023-02-07T00:36:40;59.50;;;32.58;;
49458;SDS011;35354;51.296;16.924;2023-02-07T00:39:07;56.13;;;31.00;;
49458;SDS011;35354;51.296;16.924;2023-02-07T00:41:35;51.45;;;29.67;;
49458;SDS011;35354;51.296;16.924;2023-02-07T00:44:01;59.65;;;31.98;;
49458;SDS011;35354;51.296;16.924;2023-02-07T00:46:26;60.45;;;33.17;;
49458;SDS011;35354;51.296;16.924;2023-02-07T00:48:52;56.28;;;33.53;;
49458;SDS011;35354;51.296;16.924;2023-02-07T00:51:17;61.58;;;32.13;;
49458;SDS011;35354;51.296;16.924;2023-02-07T00:53:43;62.00;;;33.05;;
49458;SDS011;35354;51.296;16.924;2023-02-07T00:56:09;58.80;;;31.95;;
49458;SDS011;35354;51.296;16.924;2023-02-07T00:58:35;56.38;;;32.72;;
49458;SDS011;35354;51.296;16.924;2023-02-07T01:01:02;60.63;;;32.15;;
49458;SDS011;35354;51.296;16.924;2023-02-07T01:03:27;55.35;;;30.30;;
49458;SDS011;35354;51.296;16.924;2023-02-07T01:05:53;54.05;;;30.02;;
49458;SDS011;35354;51.296;16.924;2023-02-07T01:08:18;57.55;;;31.38;;
49458;SDS011;35354;51.296;16.924;2023-02-07T01:10:44;58.40;;;30.88;;
49458;SDS011;35354;51.296;16.924;2023-02-07T01:13:10;66.95;;;34.38;;
49458;SDS011;35354;51.296;16.924;2023-02-07T01:15:36;61.60;;;33.33;;
49458;SDS011;35354;51.296;16.924;2023-02-07T01:18:03;59.72;;;31.80;;
49458;SDS011;35354;51.296;16.924;2023-02-07T01:20:29;59.08;;;30.35;;
49458;SDS011;35354;51.296;16.924;2023-02-07T01:22:54;60.42;;;30.60;;
49458;SDS011;35354;51.296;16.924;2023-02-07T01:25:20;61.03;;;32.70;;
49458;SDS011;35354;51.296;16.924;2023-02-07T01:27:45;61.78;;;31.55;;
49458;SDS011;35354;51.296;16.924;2023-02-07T01:30:11;60.85;;;31.00;;
49458;SDS011;35354;51.296;16.924;2023-02-07T01:32:37;55.25;;;29.40;;
49458;SDS011;35354;51.296;16.924;2023-02-07T01:35:02;55.90;;;28.02;;
49458;SDS011;35354;51.296;16.924;2023-02-07T01:37:28;50.17;;;27.27;;
49458;SDS011;35354;51.296;16.924;2023-02-07T01:39:53;51.67;;;27.42;;
49458;SDS011;35354;51.296;16.924;2023-02-07T01:42:19;51.55;;;27.30;;
49458;SDS011;35354;51.296;16.924;2023-02-07T01:47:20;52.42;;;27.30;;
49458;SDS011;35354;51.296;16.924;2023-02-07T01:49:47;46.33;;;25.15;;
49458;SDS011;35354;51.296;16.924;2023-02-07T01:52:23;46.35;;;24.65;;
49458;SDS011;35354;51.296;16.924;2023-02-07T01:55:00;45.08;;;25.92;;
49458;SDS011;35354;51.296;16.924;2023-02-07T01:57:28;48.47;;;24.67;;
49458;SDS011;35354;51.296;16.924;2023-02-07T01:59:55;47.15;;;25.00;;
49458;SDS011;35354;51.296;16.924;2023-02-07T02:02:21;44.67;;;24.65;;
49458;SDS011;35354;51.296;16.924;2023-02-07T02:04:49;52.65;;;28.38;;
49458;SDS011;35354;51.296;16.924;2023-02-07T02:07:16;60.58;;;30.92;;
49458;SDS011;35354;51.296;16.924;2023-02-07T02:09:41;57.10;;;29.25;;
49458;SDS011;35354;51.296;16.924;2023-02-07T02:15:01;50.47;;;27.02;;
49458;SDS011;35354;51.296;16.924;2023-02-07T02:23:24;48.53;;;25.13;;
49458;SDS011;35354;51.296;16.924;2023-02-07T02:31:29;51.13;;;26.92;;
49458;SDS011;35354;51.296;16.924;2023-02-07T02:34:31;45.72;;;25.73;;
49458;SDS011;35354;51.296;16.924;2023-02-07T02:42:40;47.03;;;26.20;;
49458;SDS011;35354;51.296;16.924;2023-02-07T02:45:31;42.40;;;23.38;;
49458;SDS011;35354;51.296;16.924;2023-02-07T02:48:00;45.45;;;24.15;;
49458;SDS011;35354;51.296;16.924;2023-02-07T02:50:27;41.10;;;21.60;;
49458;SDS011;35354;51.296;16.924;2023-02-07T02:52:54;43.83;;;23.50;;
49458;SDS011;35354;51.296;16.924;2023-02-07T02:55:21;42.50;;;23.85;;
49458;SDS011;35354;51.296;16.924;2023-02-07T03:00:58;39.80;;;23.05;;
49458;SDS011;35354;51.296;16.924;2023-02-07T03:03:34;41.80;;;23.33;;
49458;SDS011;35354;51.296;16.924;2023-02-07T03:11:41;40.80;;;21.92;;
49458;SDS011;35354;51.296;16.924;2023-02-07T03:14:21;38.53;;;21.98;;
49458;SDS011;35354;51.296;16.924;2023-02-07T03:17:00;37.75;;;21.25;;
49458;SDS011;35354;51.296;16.924;2023-02-07T03:19:37;41.72;;;22.05;;
49458;SDS011;35354;51.296;16.924;2023-02-07T03:22:12;36.33;;;21.08;;
49458;SDS011;35354;51.296;16.924;2023-02-07T03:24:41;50.42;;;23.23;;
49458;SDS011;35354;51.296;16.924;2023-02-07T03:27:12;52.13;;;24.60;;
49458;SDS011;35354;51.296;16.924;2023-02-07T03:29:40;77.15;;;32.58;;
49458;SDS011;35354;51.296;16.924;2023-02-07T03:32:09;86.68;;;40.22;;
49458;SDS011;35354;51.296;16.924;2023-02-07T03:34:41;107.55;;;45.28;;
49458;SDS011;35354;51.296;16.924;2023-02-07T03:37:20;114.60;;;46.80;;
49458;SDS011;35354;51.296;16.924;2023-02-07T03:39:47;126.85;;;52.78;;
49458;SDS011;35354;51.296;16.924;2023-02-07T03:45:14;119.55;;;50.25;;
49458;SDS011;35354;51.296;16.924;2023-02-07T03:47:42;125.63;;;52.10;;
49458;SDS011;35354;51.296;16.924;2023-02-07T03:50:08;115.90;;;53.35;;
49458;SDS011;35354;51.296;16.924;2023-02-07T03:52:34;99.65;;;47.58;;
49458;SDS011;35354;51.296;16.924;2023-02-07T03:54:59;107.03;;;49.38;;
49458;SDS011;35354;51.296;16.924;2023-02-07T03:57:24;110.45;;;50.78;;
49458;SDS011;35354;51.296;16.924;2023-02-07T03:59:50;74.80;;;38.35;;
49458;SDS011;35354;51.296;16.924;2023-02-07T04:02:15;79.25;;;38.63;;
49458;SDS011;35354;51.296;16.924;2023-02-07T04:04:41;86.40;;;40.95;;
49458;SDS011;35354;51.296;16.924;2023-02-07T04:07:06;91.55;;;45.35;;
49458;SDS011;35354;51.296;16.924;2023-02-07T04:09:31;84.22;;;40.58;;
49458;SDS011;35354;51.296;16.924;2023-02-07T04:11:57;83.30;;;41.17;;
49458;SDS011;35354;51.296;16.924;2023-02-07T04:14:22;84.15;;;41.97;;
49458;SDS011;35354;51.296;16.924;2023-02-07T04:16:48;57.47;;;31.92;;
49458;SDS011;35354;51.296;16.924;2023-02-07T04:19:14;56.10;;;27.77;;
49458;SDS011;35354;51.296;16.924;2023-02-07T04:21:40;54.22;;;28.42;;
49458;SDS011;35354;51.296;16.924;2023-02-07T04:24:05;53.30;;;28.05;;
49458;SDS011;35354;51.296;16.924;2023-02-07T04:26:31;57.25;;;31.50;;
49458;SDS011;35354;51.296;16.924;2023-02-07T04:28:56;59.97;;;30.30;;
49458;SDS011;35354;51.296;16.924;2023-02-07T04:31:22;56.22;;;30.95;;
49458;SDS011;35354;51.296;16.924;2023-02-07T04:33:47;57.65;;;31.08;;
49458;SDS011;35354;51.296;16.924;2023-02-07T04:36:13;58.70;;;29.98;;
49458;SDS011;35354;51.296;16.924;2023-02-07T04:38:38;55.47;;;30.02;;
49458;SDS011;35354;51.296;16.924;2023-02-07T04:41:04;51.67;;;28.70;;
49458;SDS011;35354;51.296;16.924;2023-02-07T04:43:30;52.05;;;27.73;;
49458;SDS011;35354;51.296;16.924;2023-02-07T04:45:56;51.13;;;28.23;;
49458;SDS011;35354;51.296;16.924;2023-02-07T04:48:22;59.45;;;38.47;;
49458;SDS011;35354;51.296;16.924;2023-02-07T04:50:47;51.92;;;32.03;;
49458;SDS011;35354;51.296;16.924;2023-02-07T04:53:13;70.82;;;46.70;;
49458;SDS011;35354;51.296;16.924;2023-02-07T04:55:38;65.50;;;43.03;;
49458;SDS011;35354;51.296;16.924;2023-02-07T04:58:04;60.50;;;37.75;;
49458;SDS011;35354;51.296;16.924;2023-02-07T05:00:30;66.63;;;38.63;;
49458;SDS011;35354;51.296;16.924;2023-02-07T05:02:56;66.47;;;39.25;;
49458;SDS011;35354;51.296;16.924;2023-02-07T05:05:21;58.67;;;35.67;;
49458;SDS011;35354;51.296;16.924;2023-02-07T05:07:46;48.80;;;28.08;;
49458;SDS011;35354;51.296;16.924;2023-02-07T05:10:12;53.13;;;29.40;;
49458;SDS011;35354;51.296;16.924;2023-02-07T05:12:37;48.38;;;26.52;;
49458;SDS011;35354;51.296;16.924;2023-02-07T05:15:03;47.08;;;25.98;;
49458;SDS011;35354;51.296;16.924;2023-02-07T05:17:29;46.20;;;25.05;;
49458;SDS011;35354;51.296;16.924;2023-02-07T05:19:58;46.58;;;24.05;;
49458;SDS011;35354;51.296;16.924;2023-02-07T05:22:24;41.55;;;24.05;;
49458;SDS011;35354;51.296;16.924;2023-02-07T05:24:49;50.97;;;25.92;;
49458;SDS011;35354;51.296;16.924;2023-02-07T05:27:15;49.22;;;23.73;;
49458;SDS011;35354;51.296;16.924;2023-02-07T05:29:40;43.53;;;22.98;;
49458;SDS011;35354;51.296;16.924;2023-02-07T05:32:05;58.72;;;29.30;;
49458;SDS011;35354;51.296;16.924;2023-02-07T05:34:49;90.55;;;36.83;;
49458;SDS011;35354;51.296;16.924;2023-02-07T05:37:14;88.97;;;38.85;;
49458;SDS011;35354;51.296;16.924;2023-02-07T05:39:40;85.85;;;38.53;;
49458;SDS011;35354;51.296;16.924;2023-02-07T05:42:05;81.45;;;36.55;;
49458;SDS011;35354;51.296;16.924;2023-02-07T05:44:30;75.55;;;34.47;;
49458;SDS011;35354;51.296;16.924;2023-02-07T05:46:56;67.63;;;30.38;;
49458;SDS011;35354;51.296;16.924;2023-02-07T05:49:21;53.90;;;27.77;;
49458;SDS011;35354;51.296;16.924;2023-02-07T05:51:46;55.67;;;27.58;;
49458;SDS011;35354;51.296;16.924;2023-02-07T05:54:12;56.20;;;29.73;;
49458;SDS011;35354;51.296;16.924;2023-02-07T05:56:37;63.00;;;32.60;;
49458;SDS011;35354;51.296;16.924;2023-02-07T05:59:02;68.82;;;32.13;;
49458;SDS011;35354;51.296;16.924;2023-02-07T06:01:27;70.10;;;34.92;;
49458;SDS011;35354;51.296;16.924;2023-02-07T06:03:53;65.88;;;33.72;;
49458;SDS011;35354;51.296;16.924;2023-02-07T06:06:18;73.55;;;38.53;;
49458;SDS011;35354;51.296;16.924;2023-02-07T06:08:43;74.75;;;41.60;;
49458;SDS011;35354;51.296;16.924;2023-02-07T06:11:09;71.15;;;37.35;;
49458;SDS011;35354;51.296;16.924;2023-02-07T06:13:34;53.25;;;30.08;;
49458;SDS011;35354;51.296;16.924;2023-02-07T06:15:59;52.47;;;30.52;;
49458;SDS011;35354;51.296;16.924;2023-02-07T06:18:25;51.20;;;28.90;;
49458;SDS011;35354;51.296;16.924;2023-02-07T06:20:50;51.42;;;29.95;;
49458;SDS011;35354;51.296;16.924;2023-02-07T06:23:15;67.82;;;32.15;;
49458;SDS011;35354;51.296;16.924;2023-02-07T06:25:41;68.30;;;35.88;;
49458;SDS011;35354;51.296;16.924;2023-02-07T06:28:06;73.88;;;35.47;;
49458;SDS011;35354;51.296;16.924;2023-02-07T06:30:31;64.65;;;32.95;;
49458;SDS011;35354;51.296;16.924;2023-02-07T06:32:57;71.13;;;34.45;;
49458;SDS011;35354;51.296;16.924;2023-02-07T06:35:22;80.35;;;38.65;;
49458;SDS011;35354;51.296;16.924;2023-02-07T06:37:47;103.90;;;49.17;;
49458;SDS011;35354;51.296;16.924;2023-02-07T06:40:13;97.13;;;47.88;;
49458;SDS011;35354;51.296;16.924;2023-02-07T06:42:38;119.20;;;52.95;;
49458;SDS011;35354;51.296;16.924;2023-02-07T06:45:03;149.82;;;67.65;;
49458;SDS011;35354;51.296;16.924;2023-02-07T06:47:29;161.80;;;72.53;;
49458;SDS011;35354;51.296;16.924;2023-02-07T06:49:54;103.20;;;47.90;;
49458;SDS011;35354;51.296;16.924;2023-02-07T06:52:20;80.82;;;40.95;;
49458;SDS011;35354;51.296;16.924;2023-02-07T06:54:45;104.82;;;51.88;;
49458;SDS011;35354;51.296;16.924;2023-02-07T06:57:10;89.55;;;44.83;;
49458;SDS011;35354;51.296;16.924;2023-02-07T06:59:36;86.15;;;42.63;;
49458;SDS011;35354;51.296;16.924;2023-02-07T07:02:01;79.57;;;38.28;;
49458;SDS011;35354;51.296;16.924;2023-02-07T07:04:27;78.40;;;39.80;;
49458;SDS011;35354;51.296;16.924;2023-02-07T07:06:53;69.97;;;38.08;;
49458;SDS011;35354;51.296;16.924;2023-02-07T07:09:18;84.75;;;42.88;;
49458;SDS011;35354;51.296;16.924;2023-02-07T07:11:43;72.13;;;38.10;;
49458;SDS011;35354;51.296;16.924;2023-02-07T07:14:09;68.95;;;37.40;;
49458;SDS011;35354;51.296;16.924;2023-02-07T07:16:35;82.63;;;41.40;;
49458;SDS011;35354;51.296;16.924;2023-02-07T07:19:01;80.60;;;43.33;;
49458;SDS011;35354;51.296;16.924;2023-02-07T07:21:26;76.85;;;45.53;;
49458;SDS011;35354;51.296;16.924;2023-02-07T07:23:52;79.65;;;44.00;;
49458;SDS011;35354;51.296;16.924;2023-02-07T07:26:18;84.68;;;45.97;;
49458;SDS011;35354;51.296;16.924;2023-02-07T07:28:44;79.38;;;44.35;;
49458;SDS011;35354;51.296;16.924;2023-02-07T07:31:09;76.90;;;44.15;;
49458;SDS011;35354;51.296;16.924;2023-02-07T07:33:35;80.88;;;42.83;;
49458;SDS011;35354;51.296;16.924;2023-02-07T07:36:01;67.65;;;37.13;;
49458;SDS011;35354;51.296;16.924;2023-02-07T07:38:27;56.15;;;32.60;;
49458;SDS011;35354;51.296;16.924;2023-02-07T07:40:52;59.33;;;35.17;;
49458;SDS011;35354;51.296;16.924;2023-02-07T07:43:18;53.35;;;29.77;;
49458;SDS011;35354;51.296;16.924;2023-02-07T07:45:43;39.25;;;22.52;;
49458;SDS011;35354;51.296;16.924;2023-02-07T07:48:09;32.97;;;20.45;;
49458;SDS011;35354;51.296;16.924;2023-02-07T07:50:35;44.05;;;24.05;;
49458;SDS011;35354;51.296;16.924;2023-02-07T07:53:00;42.72;;;31.75;;
49458;SDS011;35354;51.296;16.924;2023-02-07T07:55:25;36.72;;;22.50;;
49458;SDS011;35354;51.296;16.924;2023-02-07T07:57:51;61.95;;;37.00;;
49458;SDS011;35354;51.296;16.924;2023-02-07T08:00:17;47.80;;;25.00;;
49458;SDS011;35354;51.296;16.924;2023-02-07T08:02:42;44.40;;;23.17;;
49458;SDS011;35354;51.296;16.924;2023-02-07T08:05:08;48.75;;;26.70;;
49458;SDS011;35354;51.296;16.924;2023-02-07T08:07:35;56.08;;;33.72;;
49458;SDS011;35354;51.296;16.924;2023-02-07T08:10:00;33.83;;;17.80;;
49458;SDS011;35354;51.296;16.924;2023-02-07T08:12:25;38.60;;;22.25;;
49458;SDS011;35354;51.296;16.924;2023-02-07T08:14:51;31.10;;;19.50;;
49458;SDS011;35354;51.296;16.924;2023-02-07T08:17:16;47.95;;;23.73;;
49458;SDS011;35354;51.296;16.924;2023-02-07T08:19:42;36.17;;;18.35;;
49458;SDS011;35354;51.296;16.924;2023-02-07T08:22:07;40.92;;;19.98;;
49458;SDS011;35354;51.296;16.924;2023-02-07T08:24:32;35.38;;;17.33;;
49458;SDS011;35354;51.296;16.924;2023-02-07T08:26:59;49.35;;;23.90;;
49458;SDS011;35354;51.296;16.924;2023-02-07T08:29:25;55.30;;;26.58;;
49458;SDS011;35354;51.296;16.924;2023-02-07T08:31:50;36.00;;;21.25;;
49458;SDS011;35354;51.296;16.924;2023-02-07T08:34:16;40.72;;;23.27;;
49458;SDS011;35354;51.296;16.924;2023-02-07T08:36:42;32.40;;;19.20;;
49458;SDS011;35354;51.296;16.924;2023-02-07T08:39:08;27.83;;;18.30;;
49458;SDS011;35354;51.296;16.924;2023-02-07T08:41:33;27.35;;;15.90;;
49458;SDS011;35354;51.296;16.924;2023-02-07T08:43:58;31.20;;;17.92;;
49458;SDS011;35354;51.296;16.924;2023-02-07T08:46:24;32.67;;;18.40;;
49458;SDS011;35354;51.296;16.924;2023-02-07T08:48:49;27.80;;;17.15;;
49458;SDS011;35354;51.296;16.924;2023-02-07T08:51:14;28.33;;;17.42;;
49458;SDS011;35354;51.296;16.924;2023-02-07T08:53:40;29.80;;;17.88;;
49458;SDS011;35354;51.296;16.924;2023-02-07T08:56:05;32.05;;;18.77;;
49458;SDS011;35354;51.296;16.924;2023-02-07T08:58:32;27.98;;;17.17;;
49458;SDS011;35354;51.296;16.924;2023-02-07T09:00:57;26.70;;;17.17;;
49458;SDS011;35354;51.296;16.924;2023-02-07T09:03:23;31.00;;;20.02;;
49458;SDS011;35354;51.296;16.924;2023-02-07T09:05:48;29.10;;;17.73;;
49458;SDS011;35354;51.296;16.924;2023-02-07T09:08:13;29.60;;;17.88;;
49458;SDS011;35354;51.296;16.924;2023-02-07T09:10:39;40.13;;;19.98;;
49458;SDS011;35354;51.296;16.924;2023-02-07T09:13:04;34.47;;;19.35;;
49458;SDS011;35354;51.296;16.924;2023-02-07T09:15:30;32.38;;;20.75;;
49458;SDS011;35354;51.296;16.924;2023-02-07T09:17:55;31.15;;;19.40;;
49458;SDS011;35354;51.296;16.924;2023-02-07T09:20:20;30.17;;;17.00;;
49458;SDS011;35354;51.296;16.924;2023-02-07T09:22:45;26.17;;;16.58;;
49458;SDS011;35354;51.296;16.924;2023-02-07T09:25:29;29.17;;;17.98;;
49458;SDS011;35354;51.296;16.924;2023-02-07T09:27:55;26.25;;;16.05;;
49458;SDS011;35354;51.296;16.924;2023-02-07T09:30:20;23.33;;;15.57;;
49458;SDS011;35354;51.296;16.924;2023-02-07T09:32:46;31.23;;;17.77;;
49458;SDS011;35354;51.296;16.924;2023-02-07T09:35:12;32.63;;;19.85;;
49458;SDS011;35354;51.296;16.924;2023-02-07T09:37:37;34.03;;;20.88;;
49458;SDS011;35354;51.296;16.924;2023-02-07T09:40:02;36.88;;;20.15;;
49458;SDS011;35354;51.296;16.924;2023-02-07T09:42:42;37.03;;;21.55;;
49458;SDS011;35354;51.296;16.924;2023-02-07T09:45:16;49.15;;;23.38;;
49458;SDS011;35354;51.296;16.924;2023-02-07T09:47:44;90.93;;;37.75;;
49458;SDS011;35354;51.296;16.924;2023-02-07T09:50:17;36.35;;;22.55;;
49458;SDS011;35354;51.296;16.924;2023-02-07T09:58:17;101.00;;;41.78;;
49458;SDS011;35354;51.296;16.924;2023-02-07T10:01:07;42.63;;;23.92;;
49458;SDS011;35354;51.296;16.924;2023-02-07T10:03:41;33.03;;;19.17;;
49458;SDS011;35354;51.296;16.924;2023-02-07T10:06:16;37.47;;;22.67;;
49458;SDS011;35354;51.296;16.924;2023-02-07T10:08:50;28.58;;;17.98;;
49458;SDS011;35354;51.296;16.924;2023-02-07T10:24:43;39.22;;;21.42;;
49458;SDS011;35354;51.296;16.924;2023-02-07T10:27:28;38.63;;;20.80;;
49458;SDS011;35354;51.296;16.924;2023-02-07T10:32:45;31.30;;;17.23;;
49458;SDS011;35354;51.296;16.924;2023-02-07T10:35:19;32.25;;;17.60;;
49458;SDS011;35354;51.296;16.924;2023-02-07T10:37:48;30.42;;;16.85;;
49458;SDS011;35354;51.296;16.924;2023-02-07T10:40:33;31.40;;;18.60;;
49458;SDS011;35354;51.296;16.924;2023-02-07T10:43:05;31.58;;;18.65;;
49458;SDS011;35354;51.296;16.924;2023-02-07T10:45:47;31.63;;;17.50;;
49458;SDS011;35354;51.296;16.924;2023-02-07T10:48:14;37.03;;;20.88;;
49458;SDS011;35354;51.296;16.924;2023-02-07T10:50:40;32.40;;;17.27;;
49458;SDS011;35354;51.296;16.924;2023-02-07T10:53:06;33.08;;;18.23;;
49458;SDS011;35354;51.296;16.924;2023-02-07T10:55:41;47.17;;;23.75;;
49458;SDS011;35354;51.296;16.924;2023-02-07T10:58:17;45.42;;;22.02;;
49458;SDS011;35354;51.296;16.924;2023-02-07T11:00:48;43.20;;;22.83;;
49458;SDS011;35354;51.296;16.924;2023-02-07T11:03:16;42.67;;;24.13;;
49458;SDS011;35354;51.296;16.924;2023-02-07T11:06:05;51.05;;;25.23;;
49458;SDS011;35354;51.296;16.924;2023-02-07T11:08:33;36.72;;;20.30;;
49458;SDS011;35354;51.296;16.924;2023-02-07T11:11:20;35.25;;;20.33;;
49458;SDS011;35354;51.296;16.924;2023-02-07T11:13:50;39.05;;;20.40;;
49458;SDS011;35354;51.296;16.924;2023-02-07T11:16:18;57.40;;;27.50;;
49458;SDS011;35354;51.296;16.924;2023-02-07T11:18:46;60.60;;;30.88;;
49458;SDS011;35354;51.296;16.924;2023-02-07T11:24:05;90.45;;;42.58;;
49458;SDS011;35354;51.296;16.924;2023-02-07T11:26:38;56.40;;;26.50;;
49458;SDS011;35354;51.296;16.924;2023-02-07T11:29:18;91.82;;;44.28;;
49458;SDS011;35354;51.296;16.924;2023-02-07T11:31:46;39.53;;;22.60;;
49458;SDS011;35354;51.296;16.924;2023-02-07T11:39:40;60.50;;;33.80;;
49458;SDS011;35354;51.296;16.924;2023-02-07T11:42:09;71.70;;;37.28;;
49458;SDS011;35354;51.296;16.924;2023-02-07T11:44:39;72.43;;;36.58;;
49458;SDS011;35354;51.296;16.924;2023-02-07T11:47:06;56.38;;;29.65;;
49458;SDS011;35354;51.296;16.924;2023-02-07T11:52:07;217.77;;;107.85;;
49458;SDS011;35354;51.296;16.924;2023-02-07T11:54:33;49.30;;;27.85;;
49458;SDS011;35354;51.296;16.924;2023-02-07T11:57:01;43.40;;;24.67;;
49458;SDS011;35354;51.296;16.924;2023-02-07T11:59:45;47.92;;;25.27;;
49458;SDS011;35354;51.296;16.924;2023-02-07T12:02:32;37.72;;;21.60;;
49458;SDS011;35354;51.296;16.924;2023-02-07T12:07:44;51.70;;;28.10;;
49458;SDS011;35354;51.296;16.924;2023-02-07T12:10:14;38.63;;;23.92;;
49458;SDS011;35354;51.296;16.924;2023-02-07T12:15:28;44.10;;;25.38;;
49458;SDS011;35354;51.296;16.924;2023-02-07T12:26:38;48.40;;;28.75;;
49458;SDS011;35354;51.296;16.924;2023-02-07T12:34:37;36.10;;;20.92;;
49458;SDS011;35354;51.296;16.924;2023-02-07T12:42:45;45.70;;;24.52;;
49458;SDS011;35354;51.296;16.924;2023-02-07T12:45:22;43.55;;;24.95;;
49458;SDS011;35354;51.296;16.924;2023-02-07T12:48:00;41.47;;;21.42;;
49458;SDS011;35354;51.296;16.924;2023-02-07T12:50:50;42.08;;;22.77;;
49458;SDS011;35354;51.296;16.924;2023-02-07T12:53:27;55.42;;;33.08;;
49458;SDS011;35354;51.296;16.924;2023-02-07T12:56:25;56.50;;;30.27;;
49458;SDS011;35354;51.296;16.924;2023-02-07T12:59:13;42.05;;;24.08;;
49458;SDS011;35354;51.296;16.924;2023-02-07T13:05:10;132.27;;;58.53;;
49458;SDS011;35354;51.296;16.924;2023-02-07T13:10:36;37.80;;;22.10;;
49458;SDS011;35354;51.296;16.924;2023-02-07T13:13:10;35.00;;;22.67;;
49458;SDS011;35354;51.296;16.924;2023-02-07T13:23:39;38.78;;;22.63;;
49458;SDS011;35354;51.296;16.924;2023-02-07T13:26:08;103.32;;;53.92;;
49458;SDS011;35354;51.296;16.924;2023-02-07T13:31:23;53.22;;;27.05;;
49458;SDS011;35354;51.296;16.924;2023-02-07T13:33:54;45.85;;;26.92;;
49458;SDS011;35354;51.296;16.924;2023-02-07T13:39:19;48.15;;;30.17;;
49458;SDS011;35354;51.296;16.924;2023-02-07T13:55:40;63.13;;;37.42;;
49458;SDS011;35354;51.296;16.924;2023-02-07T14:01:20;63.85;;;34.45;;
49458;SDS011;35354;51.296;16.924;2023-02-07T14:03:59;55.08;;;31.48;;
49458;SDS011;35354;51.296;16.924;2023-02-07T14:06:28;59.45;;;33.78;;
49458;SDS011;35354;51.296;16.924;2023-02-07T14:09:03;63.35;;;34.80;;
49458;SDS011;35354;51.296;16.924;2023-02-07T14:11:39;72.47;;;38.30;;
49458;SDS011;35354;51.296;16.924;2023-02-07T14:14:27;83.15;;;45.78;;
49458;SDS011;35354;51.296;16.924;2023-02-07T14:19:52;177.05;;;83.72;;
49458;SDS011;35354;51.296;16.924;2023-02-07T14:27:31;91.85;;;50.83;;
49458;SDS011;35354;51.296;16.924;2023-02-07T14:41:13;60.80;;;31.83;;
49458;SDS011;35354;51.296;16.924;2023-02-07T14:43:49;58.88;;;35.08;;
49458;SDS011;35354;51.296;16.924;2023-02-07T14:46:31;65.28;;;35.33;;
49458;SDS011;35354;51.296;16.924;2023-02-07T14:49:06;50.90;;;29.45;;
49458;SDS011;35354;51.296;16.924;2023-02-07T14:54:48;65.32;;;36.90;;
49458;SDS011;35354;51.296;16.924;2023-02-07T15:00:17;60.58;;;38.63;;
49458;SDS011;35354;51.296;16.924;2023-02-07T15:02:56;54.05;;;34.60;;
49458;SDS011;35354;51.296;16.924;2023-02-07T15:05:28;60.00;;;37.13;;
49458;SDS011;35354;51.296;16.924;2023-02-07T15:10:27;93.30;;;49.55;;
49458;SDS011;35354;51.296;16.924;2023-02-07T15:12:54;102.47;;;54.80;;
49458;SDS011;35354;51.296;16.924;2023-02-07T15:15:24;138.77;;;66.32;;
49458;SDS011;35354;51.296;16.924;2023-02-07T15:17:55;90.50;;;45.78;;
49458;SDS011;35354;51.296;16.924;2023-02-07T15:20:27;57.33;;;33.70;;
49458;SDS011;35354;51.296;16.924;2023-02-07T15:22:55;66.15;;;36.92;;
49458;SDS011;35354;51.296;16.924;2023-02-07T15:25:23;60.75;;;34.20;;
49458;SDS011;35354;51.296;16.924;2023-02-07T15:27:57;58.78;;;35.22;;
49458;SDS011;35354;51.296;16.924;2023-02-07T15:30:23;75.18;;;40.88;;
49458;SDS011;35354;51.296;16.924;2023-02-07T15:32:48;63.53;;;36.30;;
49458;SDS011;35354;51.296;16.924;2023-02-07T15:35:18;61.67;;;34.58;;
49458;SDS011;35354;51.296;16.924;2023-02-07T15:37:46;66.18;;;37.28;;
49458;SDS011;35354;51.296;16.924;2023-02-07T15:40:16;54.35;;;32.50;;
49458;SDS011;35354;51.296;16.924;2023-02-07T15:42:50;53.17;;;31.63;;
49458;SDS011;35354;51.296;16.924;2023-02-07T15:45:26;53.08;;;31.67;;
49458;SDS011;35354;51.296;16.924;2023-02-07T15:48:00;77.32;;;45.30;;
49458;SDS011;35354;51.296;16.924;2023-02-07T15:50:33;72.20;;;40.70;;
49458;SDS011;35354;51.296;16.924;2023-02-07T15:53:00;68.32;;;38.28;;
49458;SDS011;35354;51.296;16.924;2023-02-07T15:55:36;65.07;;;35.63;;
49458;SDS011;35354;51.296;16.924;2023-02-07T15:58:16;73.55;;;39.88;;
49458;SDS011;35354;51.296;16.924;2023-02-07T16:00:46;74.60;;;42.72;;
49458;SDS011;35354;51.296;16.924;2023-02-07T16:03:25;123.68;;;63.60;;
49458;SDS011;35354;51.296;16.924;2023-02-07T16:06:29;327.00;;;151.68;;
49458;SDS011;35354;51.296;16.924;2023-02-07T16:08:49;99.78;;;51.58;;
49458;SDS011;35354;51.296;16.924;2023-02-07T16:16:57;64.47;;;33.88;;
49458;SDS011;35354;51.296;16.924;2023-02-07T16:19:27;104.88;;;48.83;;
49458;SDS011;35354;51.296;16.924;2023-02-07T16:24:37;96.20;;;49.30;;
49458;SDS011;35354;51.296;16.924;2023-02-07T16:27:06;129.52;;;57.90;;
49458;SDS011;35354;51.296;16.924;2023-02-07T16:29:38;77.50;;;40.95;;
49458;SDS011;35354;51.296;16.924;2023-02-07T16:32:07;46.97;;;27.75;;
49458;SDS011;35354;51.296;16.924;2023-02-07T16:34:34;106.95;;;45.05;;
49458;SDS011;35354;51.296;16.924;2023-02-07T16:37:00;86.05;;;41.67;;
49458;SDS011;35354;51.296;16.924;2023-02-07T16:39:25;89.93;;;44.45;;
49458;SDS011;35354;51.296;16.924;2023-02-07T16:41:51;93.45;;;52.25;;
49458;SDS011;35354;51.296;16.924;2023-02-07T16:44:21;157.30;;;68.50;;
49458;SDS011;35354;51.296;16.924;2023-02-07T16:46:48;65.10;;;35.72;;
49458;SDS011;35354;51.296;16.924;2023-02-07T16:49:14;65.45;;;36.13;;
49458;SDS011;35354;51.296;16.924;2023-02-07T16:51:42;77.47;;;41.22;;
49458;SDS011;35354;51.296;16.924;2023-02-07T16:54:08;109.88;;;47.30;;
49458;SDS011;35354;51.296;16.924;2023-02-07T16:56:33;85.18;;;42.47;;
49458;SDS011;35354;51.296;16.924;2023-02-07T16:58:59;54.25;;;29.33;;
49458;SDS011;35354;51.296;16.924;2023-02-07T17:01:25;44.00;;;27.35;;